sensor_id;sensor_type;location;lat;lon;timestamp;P1;durP1;ratioP1;P2;durP2;ratioP2
61897;SDS011;47850;50.274;18.908;2022-12-10T00:01:20;32.00;;;15.30;;
61897;SDS011;47850;50.274;18.908;2022-12-10T00:03:47;30.20;;;16.50;;
61897;SDS011;47850;50.274;18.908;2022-12-10T00:06:14;32.80;;;17.40;;
61897;SDS011;47850;50.274;18.908;2022-12-10T00:08:42;28.80;;;15.70;;
61897;SDS011;47850;50.274;18.908;2022-12-10T00:11:08;31.90;;;16.50;;
61897;SDS011;47850;50.274;18.908;2022-12-10T00:13:36;35.60;;;18.40;;
61897;SDS011;47850;50.274;18.908;2022-12-10T00:16:03;28.70;;;14.50;;
61897;SDS011;47850;50.274;18.908;2022-12-10T00:18:30;38.50;;;19.10;;
61897;SDS011;47850;50.274;18.908;2022-12-10T00:20:56;35.40;;;17.90;;
61897;SDS011;47850;50.274;18.908;2022-12-10T00:23:21;45.50;;;19.00;;
61897;SDS011;47850;50.274;18.908;2022-12-10T00:25:47;34.30;;;18.30;;
61897;SDS011;47850;50.274;18.908;2022-12-10T00:28:13;29.10;;;16.90;;
61897;SDS011;47850;50.274;18.908;2022-12-10T00:30:39;30.10;;;16.00;;
61897;SDS011;47850;50.274;18.908;2022-12-10T00:33:04;25.00;;;13.70;;
61897;SDS011;47850;50.274;18.908;2022-12-10T00:35:30;25.50;;;14.30;;
61897;SDS011;47850;50.274;18.908;2022-12-10T00:37:55;26.90;;;14.20;;
61897;SDS011;47850;50.274;18.908;2022-12-10T00:40:21;28.80;;;14.10;;
61897;SDS011;47850;50.274;18.908;2022-12-10T00:42:47;25.90;;;14.70;;
61897;SDS011;47850;50.274;18.908;2022-12-10T00:45:12;26.50;;;14.90;;
61897;SDS011;47850;50.274;18.908;2022-12-10T00:47:38;24.40;;;13.20;;
61897;SDS011;47850;50.274;18.908;2022-12-10T00:50:03;19.70;;;10.60;;
61897;SDS011;47850;50.274;18.908;2022-12-10T00:52:29;20.10;;;10.20;;
61897;SDS011;47850;50.274;18.908;2022-12-10T00:54:55;26.40;;;14.70;;
61897;SDS011;47850;50.274;18.908;2022-12-10T00:57:20;23.30;;;13.10;;
61897;SDS011;47850;50.274;18.908;2022-12-10T00:59:46;26.70;;;14.20;;
61897;SDS011;47850;50.274;18.908;2022-12-10T01:02:11;24.70;;;14.00;;
61897;SDS011;47850;50.274;18.908;2022-12-10T01:04:36;25.80;;;13.40;;
61897;SDS011;47850;50.274;18.908;2022-12-10T01:07:02;25.00;;;14.50;;
61897;SDS011;47850;50.274;18.908;2022-12-10T01:09:28;24.80;;;12.90;;
61897;SDS011;47850;50.274;18.908;2022-12-10T01:11:56;22.30;;;13.80;;
61897;SDS011;47850;50.274;18.908;2022-12-10T01:14:24;23.50;;;13.50;;
61897;SDS011;47850;50.274;18.908;2022-12-10T01:16:53;26.20;;;15.30;;
61897;SDS011;47850;50.274;18.908;2022-12-10T01:19:20;30.20;;;17.10;;
61897;SDS011;47850;50.274;18.908;2022-12-10T01:21:49;23.00;;;14.10;;
61897;SDS011;47850;50.274;18.908;2022-12-10T01:24:19;15.50;;;8.10;;
61897;SDS011;47850;50.274;18.908;2022-12-10T01:26:48;23.20;;;12.60;;
61897;SDS011;47850;50.274;18.908;2022-12-10T01:29:14;23.40;;;11.60;;
61897;SDS011;47850;50.274;18.908;2022-12-10T01:31:40;23.10;;;13.20;;
61897;SDS011;47850;50.274;18.908;2022-12-10T01:34:07;23.90;;;13.60;;
61897;SDS011;47850;50.274;18.908;2022-12-10T01:36:40;20.60;;;11.80;;
61897;SDS011;47850;50.274;18.908;2022-12-10T01:39:08;22.80;;;12.80;;
61897;SDS011;47850;50.274;18.908;2022-12-10T01:41:43;24.80;;;13.70;;
61897;SDS011;47850;50.274;18.908;2022-12-10T01:46:41;22.50;;;12.60;;
61897;SDS011;47850;50.274;18.908;2022-12-10T01:49:18;22.00;;;11.70;;
61897;SDS011;47850;50.274;18.908;2022-12-10T01:51:47;16.90;;;9.30;;
61897;SDS011;47850;50.274;18.908;2022-12-10T01:54:16;21.10;;;12.20;;
61897;SDS011;47850;50.274;18.908;2022-12-10T01:56:45;17.30;;;10.50;;
61897;SDS011;47850;50.274;18.908;2022-12-10T01:59:15;21.40;;;11.70;;
61897;SDS011;47850;50.274;18.908;2022-12-10T02:07:22;21.50;;;12.70;;
61897;SDS011;47850;50.274;18.908;2022-12-10T02:12:28;22.50;;;12.20;;
61897;SDS011;47850;50.274;18.908;2022-12-10T02:17:36;17.90;;;11.20;;
61897;SDS011;47850;50.274;18.908;2022-12-10T02:20:19;20.10;;;11.10;;
61897;SDS011;47850;50.274;18.908;2022-12-10T02:22:48;19.40;;;11.50;;
61897;SDS011;47850;50.274;18.908;2022-12-10T02:25:14;20.40;;;11.10;;
61897;SDS011;47850;50.274;18.908;2022-12-10T02:27:57;18.00;;;10.50;;
61897;SDS011;47850;50.274;18.908;2022-12-10T02:30:31;17.10;;;9.40;;
61897;SDS011;47850;50.274;18.908;2022-12-10T02:32:58;16.20;;;9.40;;
61897;SDS011;47850;50.274;18.908;2022-12-10T02:35:26;15.30;;;8.60;;
61897;SDS011;47850;50.274;18.908;2022-12-10T02:38:02;17.30;;;10.60;;
61897;SDS011;47850;50.274;18.908;2022-12-10T02:40:42;19.20;;;10.90;;
61897;SDS011;47850;50.274;18.908;2022-12-10T02:43:12;19.30;;;11.20;;
61897;SDS011;47850;50.274;18.908;2022-12-10T02:45:39;19.00;;;10.60;;
61897;SDS011;47850;50.274;18.908;2022-12-10T02:48:06;9.30;;;5.10;;
61897;SDS011;47850;50.274;18.908;2022-12-10T02:50:32;15.90;;;10.00;;
61897;SDS011;47850;50.274;18.908;2022-12-10T02:52:59;17.80;;;10.40;;
61897;SDS011;47850;50.274;18.908;2022-12-10T02:55:24;14.50;;;9.70;;
61897;SDS011;47850;50.274;18.908;2022-12-10T02:58:12;14.50;;;9.70;;
61897;SDS011;47850;50.274;18.908;2022-12-10T03:00:45;16.30;;;10.20;;
61897;SDS011;47850;50.274;18.908;2022-12-10T03:06:19;16.30;;;10.10;;
61897;SDS011;47850;50.274;18.908;2022-12-10T03:09:55;13.40;;;8.00;;
61897;SDS011;47850;50.274;18.908;2022-12-10T03:11:52;18.00;;;9.50;;
61897;SDS011;47850;50.274;18.908;2022-12-10T03:14:27;17.40;;;10.60;;
61897;SDS011;47850;50.274;18.908;2022-12-10T03:16:56;16.50;;;9.00;;
61897;SDS011;47850;50.274;18.908;2022-12-10T03:19:26;15.40;;;9.80;;
61897;SDS011;47850;50.274;18.908;2022-12-10T03:21:56;14.40;;;8.60;;
61897;SDS011;47850;50.274;18.908;2022-12-10T03:24:23;15.30;;;8.60;;
61897;SDS011;47850;50.274;18.908;2022-12-10T03:26:52;17.60;;;9.30;;
61897;SDS011;47850;50.274;18.908;2022-12-10T03:29:22;15.50;;;9.50;;
61897;SDS011;47850;50.274;18.908;2022-12-10T03:31:52;16.50;;;10.00;;
61897;SDS011;47850;50.274;18.908;2022-12-10T03:34:19;17.20;;;10.30;;
61897;SDS011;47850;50.274;18.908;2022-12-10T03:36:45;15.70;;;9.30;;
61897;SDS011;47850;50.274;18.908;2022-12-10T03:39:11;17.30;;;9.70;;
61897;SDS011;47850;50.274;18.908;2022-12-10T03:41:38;15.70;;;9.30;;
61897;SDS011;47850;50.274;18.908;2022-12-10T03:44:03;17.10;;;9.70;;
61897;SDS011;47850;50.274;18.908;2022-12-10T03:46:29;19.60;;;11.40;;
61897;SDS011;47850;50.274;18.908;2022-12-10T03:48:56;16.00;;;9.60;;
61897;SDS011;47850;50.274;18.908;2022-12-10T03:51:23;15.70;;;10.20;;
61897;SDS011;47850;50.274;18.908;2022-12-10T03:53:48;17.40;;;10.60;;
61897;SDS011;47850;50.274;18.908;2022-12-10T03:56:15;16.40;;;9.60;;
61897;SDS011;47850;50.274;18.908;2022-12-10T03:58:41;14.10;;;9.70;;
61897;SDS011;47850;50.274;18.908;2022-12-10T04:01:06;17.50;;;9.90;;
61897;SDS011;47850;50.274;18.908;2022-12-10T04:03:36;15.30;;;9.40;;
61897;SDS011;47850;50.274;18.908;2022-12-10T04:06:06;18.10;;;10.70;;
61897;SDS011;47850;50.274;18.908;2022-12-10T04:08:35;18.00;;;10.70;;
61897;SDS011;47850;50.274;18.908;2022-12-10T04:11:02;17.70;;;10.40;;
61897;SDS011;47850;50.274;18.908;2022-12-10T04:13:30;17.60;;;10.00;;
61897;SDS011;47850;50.274;18.908;2022-12-10T04:16:15;18.20;;;10.60;;
61897;SDS011;47850;50.274;18.908;2022-12-10T04:18:54;15.40;;;9.10;;
61897;SDS011;47850;50.274;18.908;2022-12-10T04:21:19;21.60;;;11.60;;
61897;SDS011;47850;50.274;18.908;2022-12-10T04:24:04;21.00;;;13.10;;
61897;SDS011;47850;50.274;18.908;2022-12-10T04:26:49;26.10;;;15.70;;
61897;SDS011;47850;50.274;18.908;2022-12-10T04:29:18;25.00;;;13.90;;
61897;SDS011;47850;50.274;18.908;2022-12-10T04:31:44;61.00;;;32.20;;
61897;SDS011;47850;50.274;18.908;2022-12-10T04:34:10;31.10;;;18.00;;
61897;SDS011;47850;50.274;18.908;2022-12-10T04:36:35;47.10;;;22.30;;
61897;SDS011;47850;50.274;18.908;2022-12-10T04:39:01;31.10;;;15.30;;
61897;SDS011;47850;50.274;18.908;2022-12-10T04:41:26;42.10;;;20.60;;
61897;SDS011;47850;50.274;18.908;2022-12-10T04:43:52;29.40;;;16.10;;
61897;SDS011;47850;50.274;18.908;2022-12-10T04:46:17;41.40;;;18.10;;
61897;SDS011;47850;50.274;18.908;2022-12-10T04:48:43;50.60;;;20.70;;
61897;SDS011;47850;50.274;18.908;2022-12-10T04:51:08;29.10;;;16.10;;
61897;SDS011;47850;50.274;18.908;2022-12-10T04:53:34;29.60;;;14.90;;
61897;SDS011;47850;50.274;18.908;2022-12-10T04:55:59;35.40;;;17.40;;
61897;SDS011;47850;50.274;18.908;2022-12-10T04:58:26;28.20;;;14.60;;
61897;SDS011;47850;50.274;18.908;2022-12-10T05:01:06;39.70;;;17.60;;
61897;SDS011;47850;50.274;18.908;2022-12-10T05:03:33;39.80;;;17.40;;
61897;SDS011;47850;50.274;18.908;2022-12-10T05:06:00;39.60;;;17.10;;
61897;SDS011;47850;50.274;18.908;2022-12-10T05:08:27;51.50;;;18.70;;
61897;SDS011;47850;50.274;18.908;2022-12-10T05:10:53;37.10;;;14.30;;
61897;SDS011;47850;50.274;18.908;2022-12-10T05:13:18;36.70;;;14.00;;
61897;SDS011;47850;50.274;18.908;2022-12-10T05:15:44;51.20;;;19.30;;
61897;SDS011;47850;50.274;18.908;2022-12-10T05:18:09;51.80;;;19.70;;
61897;SDS011;47850;50.274;18.908;2022-12-10T05:20:35;34.00;;;14.60;;
61897;SDS011;47850;50.274;18.908;2022-12-10T05:23:00;38.60;;;16.70;;
61897;SDS011;47850;50.274;18.908;2022-12-10T05:25:44;33.90;;;16.10;;
61897;SDS011;47850;50.274;18.908;2022-12-10T05:28:19;52.30;;;20.40;;
61897;SDS011;47850;50.274;18.908;2022-12-10T05:30:46;56.00;;;21.20;;
61897;SDS011;47850;50.274;18.908;2022-12-10T05:33:11;49.60;;;20.70;;
61897;SDS011;47850;50.274;18.908;2022-12-10T05:35:37;55.80;;;21.00;;
61897;SDS011;47850;50.274;18.908;2022-12-10T05:38:02;42.50;;;16.50;;
61897;SDS011;47850;50.274;18.908;2022-12-10T05:40:28;62.70;;;22.90;;
61897;SDS011;47850;50.274;18.908;2022-12-10T05:42:54;49.30;;;21.90;;
61897;SDS011;47850;50.274;18.908;2022-12-10T05:45:19;46.20;;;19.90;;
61897;SDS011;47850;50.274;18.908;2022-12-10T05:47:45;32.20;;;15.70;;
61897;SDS011;47850;50.274;18.908;2022-12-10T05:50:10;34.10;;;15.30;;
61897;SDS011;47850;50.274;18.908;2022-12-10T05:52:35;47.90;;;20.40;;
61897;SDS011;47850;50.274;18.908;2022-12-10T05:55:01;34.90;;;17.30;;
61897;SDS011;47850;50.274;18.908;2022-12-10T05:57:26;37.80;;;18.30;;
61897;SDS011;47850;50.274;18.908;2022-12-10T05:59:51;38.10;;;18.90;;
61897;SDS011;47850;50.274;18.908;2022-12-10T06:02:17;39.90;;;17.70;;
61897;SDS011;47850;50.274;18.908;2022-12-10T06:04:42;31.10;;;14.60;;
61897;SDS011;47850;50.274;18.908;2022-12-10T06:07:08;28.90;;;13.70;;
61897;SDS011;47850;50.274;18.908;2022-12-10T06:09:33;34.20;;;16.20;;
61897;SDS011;47850;50.274;18.908;2022-12-10T06:11:59;29.10;;;14.00;;
61897;SDS011;47850;50.274;18.908;2022-12-10T06:14:24;29.50;;;14.40;;
61897;SDS011;47850;50.274;18.908;2022-12-10T06:16:49;37.40;;;20.30;;
61897;SDS011;47850;50.274;18.908;2022-12-10T06:19:15;26.50;;;13.80;;
61897;SDS011;47850;50.274;18.908;2022-12-10T06:21:40;29.70;;;15.20;;
61897;SDS011;47850;50.274;18.908;2022-12-10T06:24:06;31.80;;;15.20;;
61897;SDS011;47850;50.274;18.908;2022-12-10T06:26:32;24.80;;;12.70;;
61897;SDS011;47850;50.274;18.908;2022-12-10T06:28:57;38.90;;;20.40;;
61897;SDS011;47850;50.274;18.908;2022-12-10T06:31:23;33.80;;;19.20;;
61897;SDS011;47850;50.274;18.908;2022-12-10T06:33:48;31.00;;;16.90;;
61897;SDS011;47850;50.274;18.908;2022-12-10T06:36:15;31.00;;;17.20;;
61897;SDS011;47850;50.274;18.908;2022-12-10T06:38:42;53.00;;;23.10;;
61897;SDS011;47850;50.274;18.908;2022-12-10T06:41:08;29.00;;;15.40;;
61897;SDS011;47850;50.274;18.908;2022-12-10T06:43:36;28.10;;;15.50;;
61897;SDS011;47850;50.274;18.908;2022-12-10T06:46:20;28.30;;;15.40;;
61897;SDS011;47850;50.274;18.908;2022-12-10T06:48:46;29.20;;;15.00;;
61897;SDS011;47850;50.274;18.908;2022-12-10T06:51:13;32.20;;;18.20;;
61897;SDS011;47850;50.274;18.908;2022-12-10T06:53:39;36.60;;;20.50;;
61897;SDS011;47850;50.274;18.908;2022-12-10T06:56:06;47.30;;;24.00;;
61897;SDS011;47850;50.274;18.908;2022-12-10T06:58:33;80.20;;;46.10;;
61897;SDS011;47850;50.274;18.908;2022-12-10T07:01:06;43.10;;;24.00;;
61897;SDS011;47850;50.274;18.908;2022-12-10T07:03:37;47.70;;;25.50;;
61897;SDS011;47850;50.274;18.908;2022-12-10T07:06:03;76.30;;;35.90;;
61897;SDS011;47850;50.274;18.908;2022-12-10T07:08:29;66.90;;;32.60;;
61897;SDS011;47850;50.274;18.908;2022-12-10T07:10:55;49.60;;;26.40;;
61897;SDS011;47850;50.274;18.908;2022-12-10T07:13:22;45.30;;;23.50;;
61897;SDS011;47850;50.274;18.908;2022-12-10T07:15:48;42.20;;;21.80;;
61897;SDS011;47850;50.274;18.908;2022-12-10T07:18:13;68.50;;;31.30;;
61897;SDS011;47850;50.274;18.908;2022-12-10T07:20:38;105.50;;;53.50;;
61897;SDS011;47850;50.274;18.908;2022-12-10T07:23:04;48.10;;;24.10;;
61897;SDS011;47850;50.274;18.908;2022-12-10T07:25:29;70.90;;;34.10;;
61897;SDS011;47850;50.274;18.908;2022-12-10T07:27:55;100.30;;;47.20;;
61897;SDS011;47850;50.274;18.908;2022-12-10T07:30:20;104.20;;;41.90;;
61897;SDS011;47850;50.274;18.908;2022-12-10T07:32:46;132.80;;;46.80;;
61897;SDS011;47850;50.274;18.908;2022-12-10T07:35:11;138.40;;;51.50;;
61897;SDS011;47850;50.274;18.908;2022-12-10T07:37:37;86.00;;;33.00;;
61897;SDS011;47850;50.274;18.908;2022-12-10T07:40:02;101.20;;;35.60;;
61897;SDS011;47850;50.274;18.908;2022-12-10T07:42:28;235.80;;;77.90;;
61897;SDS011;47850;50.274;18.908;2022-12-10T07:44:54;87.50;;;32.20;;
61897;SDS011;47850;50.274;18.908;2022-12-10T07:47:19;74.70;;;29.70;;
61897;SDS011;47850;50.274;18.908;2022-12-10T07:49:45;74.70;;;31.70;;
61897;SDS011;47850;50.274;18.908;2022-12-10T07:52:10;55.30;;;25.50;;
61897;SDS011;47850;50.274;18.908;2022-12-10T07:54:35;52.30;;;24.70;;
61897;SDS011;47850;50.274;18.908;2022-12-10T07:57:01;52.50;;;23.10;;
61897;SDS011;47850;50.274;18.908;2022-12-10T07:59:27;56.10;;;29.10;;
61897;SDS011;47850;50.274;18.908;2022-12-10T08:01:52;43.50;;;21.80;;
61897;SDS011;47850;50.274;18.908;2022-12-10T08:04:18;82.30;;;32.20;;
61897;SDS011;47850;50.274;18.908;2022-12-10T08:06:43;76.50;;;30.90;;
61897;SDS011;47850;50.274;18.908;2022-12-10T08:09:09;89.00;;;35.20;;
61897;SDS011;47850;50.274;18.908;2022-12-10T08:11:36;100.60;;;37.90;;
61897;SDS011;47850;50.274;18.908;2022-12-10T08:14:01;153.50;;;54.40;;
61897;SDS011;47850;50.274;18.908;2022-12-10T08:16:27;107.30;;;37.90;;
61897;SDS011;47850;50.274;18.908;2022-12-10T08:18:56;164.30;;;59.80;;
61897;SDS011;47850;50.274;18.908;2022-12-10T08:21:24;150.10;;;60.10;;
61897;SDS011;47850;50.274;18.908;2022-12-10T08:23:52;127.70;;;48.50;;
61897;SDS011;47850;50.274;18.908;2022-12-10T08:26:20;101.90;;;44.10;;
61897;SDS011;47850;50.274;18.908;2022-12-10T08:28:47;156.40;;;67.80;;
61897;SDS011;47850;50.274;18.908;2022-12-10T08:31:14;273.50;;;100.00;;
61897;SDS011;47850;50.274;18.908;2022-12-10T08:33:41;108.60;;;41.70;;
61897;SDS011;47850;50.274;18.908;2022-12-10T08:36:07;121.20;;;45.70;;
61897;SDS011;47850;50.274;18.908;2022-12-10T08:38:35;104.50;;;46.60;;
61897;SDS011;47850;50.274;18.908;2022-12-10T08:41:14;116.30;;;51.90;;
61897;SDS011;47850;50.274;18.908;2022-12-10T08:43:42;150.10;;;73.30;;
61897;SDS011;47850;50.274;18.908;2022-12-10T08:46:08;67.10;;;30.80;;
61897;SDS011;47850;50.274;18.908;2022-12-10T08:48:34;67.20;;;29.70;;
61897;SDS011;47850;50.274;18.908;2022-12-10T08:51:01;52.30;;;24.10;;
61897;SDS011;47850;50.274;18.908;2022-12-10T08:53:27;108.90;;;51.60;;
61897;SDS011;47850;50.274;18.908;2022-12-10T08:55:53;188.10;;;102.80;;
61897;SDS011;47850;50.274;18.908;2022-12-10T08:58:19;116.10;;;59.40;;
61897;SDS011;47850;50.274;18.908;2022-12-10T09:00:46;66.10;;;32.40;;
61897;SDS011;47850;50.274;18.908;2022-12-10T09:03:13;64.90;;;31.30;;
61897;SDS011;47850;50.274;18.908;2022-12-10T09:05:39;53.50;;;26.10;;
61897;SDS011;47850;50.274;18.908;2022-12-10T09:08:05;100.50;;;55.70;;
61897;SDS011;47850;50.274;18.908;2022-12-10T09:10:30;54.20;;;25.30;;
61897;SDS011;47850;50.274;18.908;2022-12-10T09:12:56;109.90;;;38.00;;
61897;SDS011;47850;50.274;18.908;2022-12-10T09:15:21;68.20;;;28.20;;
61897;SDS011;47850;50.274;18.908;2022-12-10T09:17:47;83.60;;;32.00;;
61897;SDS011;47850;50.274;18.908;2022-12-10T09:20:12;67.90;;;28.10;;
61897;SDS011;47850;50.274;18.908;2022-12-10T09:22:38;74.50;;;31.70;;
61897;SDS011;47850;50.274;18.908;2022-12-10T09:25:04;79.00;;;32.70;;
61897;SDS011;47850;50.274;18.908;2022-12-10T09:27:31;69.70;;;28.50;;
61897;SDS011;47850;50.274;18.908;2022-12-10T09:29:56;76.90;;;31.90;;
61897;SDS011;47850;50.274;18.908;2022-12-10T09:32:22;62.60;;;27.90;;
61897;SDS011;47850;50.274;18.908;2022-12-10T09:34:50;92.80;;;43.20;;
61897;SDS011;47850;50.274;18.908;2022-12-10T09:37:16;54.40;;;27.20;;
61897;SDS011;47850;50.274;18.908;2022-12-10T09:39:42;56.70;;;26.20;;
61897;SDS011;47850;50.274;18.908;2022-12-10T09:44:47;52.30;;;23.30;;
61897;SDS011;47850;50.274;18.908;2022-12-10T09:47:29;62.90;;;27.60;;
61897;SDS011;47850;50.274;18.908;2022-12-10T09:50:03;83.30;;;37.20;;
61897;SDS011;47850;50.274;18.908;2022-12-10T09:52:59;61.50;;;30.20;;
61897;SDS011;47850;50.274;18.908;2022-12-10T09:55:34;46.10;;;23.00;;
61897;SDS011;47850;50.274;18.908;2022-12-10T09:58:02;97.40;;;45.10;;
61897;SDS011;47850;50.274;18.908;2022-12-10T10:00:35;64.60;;;30.00;;
61897;SDS011;47850;50.274;18.908;2022-12-10T10:03:03;56.50;;;25.30;;
61897;SDS011;47850;50.274;18.908;2022-12-10T10:05:30;65.30;;;32.80;;
61897;SDS011;47850;50.274;18.908;2022-12-10T10:07:59;83.40;;;41.30;;
61897;SDS011;47850;50.274;18.908;2022-12-10T10:12:57;88.00;;;44.10;;
61897;SDS011;47850;50.274;18.908;2022-12-10T10:15:37;124.30;;;66.90;;
61897;SDS011;47850;50.274;18.908;2022-12-10T10:23:14;131.40;;;70.90;;
61897;SDS011;47850;50.274;18.908;2022-12-10T10:25:41;104.90;;;54.50;;
61897;SDS011;47850;50.274;18.908;2022-12-10T10:28:09;87.60;;;40.80;;
61897;SDS011;47850;50.274;18.908;2022-12-10T10:30:37;72.40;;;36.20;;
61897;SDS011;47850;50.274;18.908;2022-12-10T10:33:09;69.50;;;34.70;;
61897;SDS011;47850;50.274;18.908;2022-12-10T10:35:44;72.30;;;35.70;;
61897;SDS011;47850;50.274;18.908;2022-12-10T10:38:15;66.10;;;27.70;;
61897;SDS011;47850;50.274;18.908;2022-12-10T10:40:53;47.50;;;23.60;;
61897;SDS011;47850;50.274;18.908;2022-12-10T10:48:26;72.10;;;34.30;;
61897;SDS011;47850;50.274;18.908;2022-12-10T10:53:44;88.80;;;42.50;;
61897;SDS011;47850;50.274;18.908;2022-12-10T10:56:20;66.40;;;33.50;;
61897;SDS011;47850;50.274;18.908;2022-12-10T11:01:26;62.80;;;29.90;;
61897;SDS011;47850;50.274;18.908;2022-12-10T11:04:28;66.60;;;30.90;;
61897;SDS011;47850;50.274;18.908;2022-12-10T11:07:03;67.50;;;30.00;;
61897;SDS011;47850;50.274;18.908;2022-12-10T11:09:39;67.50;;;29.60;;
61897;SDS011;47850;50.274;18.908;2022-12-10T11:12:06;74.30;;;33.60;;
61897;SDS011;47850;50.274;18.908;2022-12-10T11:14:46;68.50;;;31.80;;
61897;SDS011;47850;50.274;18.908;2022-12-10T11:19:45;285.40;;;101.00;;
61897;SDS011;47850;50.274;18.908;2022-12-10T11:22:21;123.40;;;49.70;;
61897;SDS011;47850;50.274;18.908;2022-12-10T11:24:49;111.10;;;47.90;;
61897;SDS011;47850;50.274;18.908;2022-12-10T11:27:29;140.70;;;66.60;;
61897;SDS011;47850;50.274;18.908;2022-12-10T11:30:00;133.50;;;65.10;;
61897;SDS011;47850;50.274;18.908;2022-12-10T11:32:34;112.20;;;55.40;;
61897;SDS011;47850;50.274;18.908;2022-12-10T12:01:32;71.80;;;33.00;;
61897;SDS011;47850;50.274;18.908;2022-12-10T12:14:36;55.50;;;25.70;;
61897;SDS011;47850;50.274;18.908;2022-12-10T12:17:15;65.10;;;31.80;;
61897;SDS011;47850;50.274;18.908;2022-12-10T12:20:34;60.80;;;27.90;;
61897;SDS011;47850;50.274;18.908;2022-12-10T12:22:50;61.00;;;27.70;;
61897;SDS011;47850;50.274;18.908;2022-12-10T12:25:22;45.00;;;21.20;;
61897;SDS011;47850;50.274;18.908;2022-12-10T12:28:00;65.40;;;29.40;;
61897;SDS011;47850;50.274;18.908;2022-12-10T12:30:36;68.10;;;30.50;;
61897;SDS011;47850;50.274;18.908;2022-12-10T12:33:24;66.00;;;30.40;;
61897;SDS011;47850;50.274;18.908;2022-12-10T12:35:58;108.30;;;52.00;;
61897;SDS011;47850;50.274;18.908;2022-12-10T12:38:31;65.90;;;30.60;;
61897;SDS011;47850;50.274;18.908;2022-12-10T12:43:47;107.90;;;47.40;;
61897;SDS011;47850;50.274;18.908;2022-12-10T12:46:39;78.00;;;33.60;;
61897;SDS011;47850;50.274;18.908;2022-12-10T12:51:46;70.50;;;31.10;;
61897;SDS011;47850;50.274;18.908;2022-12-10T12:54:21;60.70;;;26.70;;
61897;SDS011;47850;50.274;18.908;2022-12-10T13:05:19;167.60;;;54.50;;
61897;SDS011;47850;50.274;18.908;2022-12-10T13:10:56;195.00;;;75.50;;
61897;SDS011;47850;50.274;18.908;2022-12-10T13:13:43;186.20;;;74.60;;
61897;SDS011;47850;50.274;18.908;2022-12-10T13:16:35;154.50;;;59.60;;
61897;SDS011;47850;50.274;18.908;2022-12-10T13:22:39;93.00;;;42.70;;
61897;SDS011;47850;50.274;18.908;2022-12-10T13:27:03;66.80;;;29.80;;
61897;SDS011;47850;50.274;18.908;2022-12-10T13:29:29;49.00;;;22.50;;
61897;SDS011;47850;50.274;18.908;2022-12-10T13:32:18;72.80;;;31.30;;
61897;SDS011;47850;50.274;18.908;2022-12-10T13:34:46;81.70;;;34.20;;
61897;SDS011;47850;50.274;18.908;2022-12-10T13:37:32;100.60;;;42.70;;
61897;SDS011;47850;50.274;18.908;2022-12-10T13:42:36;170.40;;;65.40;;
61897;SDS011;47850;50.274;18.908;2022-12-10T13:47:51;119.60;;;41.50;;
61897;SDS011;47850;50.274;18.908;2022-12-10T14:01:14;89.70;;;31.10;;
61897;SDS011;47850;50.274;18.908;2022-12-10T14:06:27;89.30;;;31.10;;
61897;SDS011;47850;50.274;18.908;2022-12-10T14:09:01;89.00;;;30.10;;
61897;SDS011;47850;50.274;18.908;2022-12-10T14:11:46;95.30;;;32.60;;
61897;SDS011;47850;50.274;18.908;2022-12-10T14:14:20;98.70;;;33.60;;
61897;SDS011;47850;50.274;18.908;2022-12-10T14:16:51;99.70;;;34.40;;
61897;SDS011;47850;50.274;18.908;2022-12-10T14:19:17;118.50;;;41.80;;
61897;SDS011;47850;50.274;18.908;2022-12-10T14:21:45;99.30;;;34.20;;
61897;SDS011;47850;50.274;18.908;2022-12-10T14:27:15;97.90;;;37.00;;
61897;SDS011;47850;50.274;18.908;2022-12-10T14:29:47;119.50;;;45.10;;
61897;SDS011;47850;50.274;18.908;2022-12-10T14:32:15;94.90;;;35.00;;
61897;SDS011;47850;50.274;18.908;2022-12-10T14:34:43;330.10;;;127.30;;
61897;SDS011;47850;50.274;18.908;2022-12-10T14:37:20;396.60;;;125.90;;
61897;SDS011;47850;50.274;18.908;2022-12-10T14:39:53;469.60;;;198.80;;
61897;SDS011;47850;50.274;18.908;2022-12-10T14:42:19;141.00;;;49.20;;
61897;SDS011;47850;50.274;18.908;2022-12-10T14:44:45;173.70;;;78.40;;
61897;SDS011;47850;50.274;18.908;2022-12-10T14:47:16;135.20;;;44.40;;
61897;SDS011;47850;50.274;18.908;2022-12-10T14:49:46;152.10;;;57.40;;
61897;SDS011;47850;50.274;18.908;2022-12-10T14:54:43;101.90;;;37.20;;
61897;SDS011;47850;50.274;18.908;2022-12-10T15:02:30;112.10;;;49.20;;
61897;SDS011;47850;50.274;18.908;2022-12-10T15:05:02;86.50;;;37.10;;
61897;SDS011;47850;50.274;18.908;2022-12-10T15:07:34;98.30;;;42.80;;
61897;SDS011;47850;50.274;18.908;2022-12-10T15:10:03;91.00;;;42.40;;
61897;SDS011;47850;50.274;18.908;2022-12-10T15:15:13;72.80;;;31.70;;
61897;SDS011;47850;50.274;18.908;2022-12-10T15:17:42;81.50;;;36.10;;
61897;SDS011;47850;50.274;18.908;2022-12-10T15:20:19;98.00;;;42.40;;
61897;SDS011;47850;50.274;18.908;2022-12-10T15:22:50;88.90;;;36.30;;
61897;SDS011;47850;50.274;18.908;2022-12-10T15:25:21;87.30;;;36.60;;
61897;SDS011;47850;50.274;18.908;2022-12-10T15:27:54;124.60;;;47.40;;
61897;SDS011;47850;50.274;18.908;2022-12-10T15:30:22;119.20;;;48.90;;
61897;SDS011;47850;50.274;18.908;2022-12-10T15:32:50;113.50;;;47.30;;
61897;SDS011;47850;50.274;18.908;2022-12-10T15:35:15;113.50;;;47.40;;
61897;SDS011;47850;50.274;18.908;2022-12-10T15:37:41;126.30;;;48.20;;
61897;SDS011;47850;50.274;18.908;2022-12-10T15:40:24;112.40;;;47.50;;
61897;SDS011;47850;50.274;18.908;2022-12-10T15:45:57;109.10;;;49.10;;
61897;SDS011;47850;50.274;18.908;2022-12-10T15:48:25;95.70;;;42.90;;
61897;SDS011;47850;50.274;18.908;2022-12-10T15:50:53;77.90;;;35.30;;
61897;SDS011;47850;50.274;18.908;2022-12-10T15:53:27;139.80;;;47.00;;
61897;SDS011;47850;50.274;18.908;2022-12-10T15:55:54;162.90;;;50.40;;
61897;SDS011;47850;50.274;18.908;2022-12-10T15:58:19;164.80;;;49.80;;
61897;SDS011;47850;50.274;18.908;2022-12-10T16:00:45;226.40;;;63.90;;
61897;SDS011;47850;50.274;18.908;2022-12-10T16:03:15;237.40;;;67.60;;
61897;SDS011;47850;50.274;18.908;2022-12-10T16:05:42;137.60;;;43.80;;
61897;SDS011;47850;50.274;18.908;2022-12-10T16:08:24;392.70;;;98.80;;
61897;SDS011;47850;50.274;18.908;2022-12-10T16:10:52;188.20;;;50.20;;
61897;SDS011;47850;50.274;18.908;2022-12-10T16:13:24;117.90;;;36.60;;
61897;SDS011;47850;50.274;18.908;2022-12-10T16:15:57;161.30;;;47.40;;
61897;SDS011;47850;50.274;18.908;2022-12-10T16:18:25;167.30;;;51.00;;
61897;SDS011;47850;50.274;18.908;2022-12-10T16:20:51;152.50;;;49.50;;
61897;SDS011;47850;50.274;18.908;2022-12-10T16:23:17;176.80;;;64.20;;
61897;SDS011;47850;50.274;18.908;2022-12-10T16:25:43;176.40;;;66.80;;
61897;SDS011;47850;50.274;18.908;2022-12-10T16:28:13;130.50;;;51.10;;
61897;SDS011;47850;50.274;18.908;2022-12-10T16:30:44;118.20;;;43.90;;
61897;SDS011;47850;50.274;18.908;2022-12-10T16:33:12;99.90;;;39.30;;